sensor_id;sensor_type;location;lat;lon;timestamp;pressure;altitude;pressure_sealevel;temperature;humidity
35479;BME280;21594;49.794;18.652;2022-07-23T00:00:29;98237.48;;;22.50;88.83
35479;BME280;21594;49.794;18.652;2022-07-23T00:03:04;98232.22;;;22.46;89.20
35479;BME280;21594;49.794;18.652;2022-07-23T00:05:33;98234.25;;;22.54;89.61
35479;BME280;21594;49.794;18.652;2022-07-23T00:07:59;98230.16;;;22.63;89.95
35479;BME280;21594;49.794;18.652;2022-07-23T00:10:26;98225.70;;;22.70;90.30
35479;BME280;21594;49.794;18.652;2022-07-23T00:12:52;98228.98;;;22.76;90.49
35479;BME280;21594;49.794;18.652;2022-07-23T00:15:21;98238.07;;;22.81;90.61
35479;BME280;21594;49.794;18.652;2022-07-23T00:17:48;98241.13;;;22.78;90.51
35479;BME280;21594;49.794;18.652;2022-07-23T00:20:31;98243.41;;;22.81;90.59
35479;BME280;21594;49.794;18.652;2022-07-23T00:23:00;98247.05;;;22.84;90.63
35479;BME280;21594;49.794;18.652;2022-07-23T00:25:29;98244.89;;;22.84;90.66
35479;BME280;21594;49.794;18.652;2022-07-23T00:28:02;98247.98;;;22.77;90.64
35479;BME280;21594;49.794;18.652;2022-07-23T00:30:24;98243.54;;;22.73;90.86
35479;BME280;21594;49.794;18.652;2022-07-23T00:32:55;98247.37;;;22.71;91.04
35479;BME280;21594;49.794;18.652;2022-07-23T00:35:24;98251.05;;;22.70;91.22
35479;BME280;21594;49.794;18.652;2022-07-23T00:37:52;98253.77;;;22.66;91.40
35479;BME280;21594;49.794;18.652;2022-07-23T00:40:19;98255.83;;;22.64;91.54
35479;BME280;21594;49.794;18.652;2022-07-23T00:42:51;98249.69;;;22.59;91.69
35479;BME280;21594;49.794;18.652;2022-07-23T00:45:17;98248.81;;;22.52;91.88
35479;BME280;21594;49.794;18.652;2022-07-23T00:47:46;98244.28;;;22.42;92.14
35479;BME280;21594;49.794;18.652;2022-07-23T00:50:19;98245.31;;;22.37;92.45
35479;BME280;21594;49.794;18.652;2022-07-23T00:52:46;98241.44;;;22.29;92.70
35479;BME280;21594;49.794;18.652;2022-07-23T00:55:14;98232.84;;;22.23;93.01
35479;BME280;21594;49.794;18.652;2022-07-23T00:57:41;98237.73;;;22.19;93.35
35479;BME280;21594;49.794;18.652;2022-07-23T01:00:13;98238.91;;;22.17;93.66
35479;BME280;21594;49.794;18.652;2022-07-23T01:02:40;98238.29;;;22.15;93.87
35479;BME280;21594;49.794;18.652;2022-07-23T01:05:09;98243.30;;;22.14;94.21
35479;BME280;21594;49.794;18.652;2022-07-23T01:07:41;98237.31;;;22.11;94.48
35479;BME280;21594;49.794;18.652;2022-07-23T01:10:09;98243.47;;;22.12;94.74
35479;BME280;21594;49.794;18.652;2022-07-23T01:12:54;98237.98;;;22.09;94.90
35479;BME280;21594;49.794;18.652;2022-07-23T01:15:21;98241.36;;;22.07;95.11
35479;BME280;21594;49.794;18.652;2022-07-23T01:17:47;98235.88;;;22.05;95.27
35479;BME280;21594;49.794;18.652;2022-07-23T01:20:20;98235.05;;;22.04;95.45
35479;BME280;21594;49.794;18.652;2022-07-23T01:22:47;98224.89;;;22.04;95.68
35479;BME280;21594;49.794;18.652;2022-07-23T01:25:20;98227.44;;;22.01;95.86
35479;BME280;21594;49.794;18.652;2022-07-23T01:27:50;98222.45;;;21.98;96.00
35479;BME280;21594;49.794;18.652;2022-07-23T01:30:17;98226.66;;;21.97;96.10
35479;BME280;21594;49.794;18.652;2022-07-23T01:32:43;98233.02;;;21.92;96.18
35479;BME280;21594;49.794;18.652;2022-07-23T01:35:15;98233.59;;;21.83;96.26
35479;BME280;21594;49.794;18.652;2022-07-23T01:37:50;98232.64;;;21.80;96.44
35479;BME280;21594;49.794;18.652;2022-07-23T01:40:18;98229.27;;;21.82;96.64
35479;BME280;21594;49.794;18.652;2022-07-23T01:42:46;98228.92;;;21.85;96.78
35479;BME280;21594;49.794;18.652;2022-07-23T01:45:27;98234.38;;;21.88;97.03
35479;BME280;21594;49.794;18.652;2022-07-23T01:47:53;98226.70;;;21.89;97.21
35479;BME280;21594;49.794;18.652;2022-07-23T01:55:28;98215.50;;;21.79;97.38
35479;BME280;21594;49.794;18.652;2022-07-23T01:58:05;98219.88;;;21.76;97.50
35479;BME280;21594;49.794;18.652;2022-07-23T02:00:31;98217.77;;;21.71;97.72
35479;BME280;21594;49.794;18.652;2022-07-23T02:02:59;98220.22;;;21.58;97.88
35479;BME280;21594;49.794;18.652;2022-07-23T02:05:25;98220.83;;;21.45;98.12
35479;BME280;21594;49.794;18.652;2022-07-23T02:07:52;98223.47;;;21.31;98.40
35479;BME280;21594;49.794;18.652;2022-07-23T02:10:23;98220.95;;;21.14;98.76
35479;BME280;21594;49.794;18.652;2022-07-23T02:12:52;98219.84;;;21.01;99.21
35479;BME280;21594;49.794;18.652;2022-07-23T02:15:20;98217.77;;;20.92;99.75
35479;BME280;21594;49.794;18.652;2022-07-23T02:17:46;98217.80;;;20.88;100.00
35479;BME280;21594;49.794;18.652;2022-07-23T02:20:13;98229.94;;;20.86;100.00
35479;BME280;21594;49.794;18.652;2022-07-23T02:22:46;98226.41;;;20.90;100.00
35479;BME280;21594;49.794;18.652;2022-07-23T02:25:13;98232.64;;;21.05;100.00
35479;BME280;21594;49.794;18.652;2022-07-23T02:27:38;98229.59;;;21.16;100.00
35479;BME280;21594;49.794;18.652;2022-07-23T02:30:05;98225.95;;;21.09;100.00
35479;BME280;21594;49.794;18.652;2022-07-23T02:32:31;98220.55;;;20.99;100.00
35479;BME280;21594;49.794;18.652;2022-07-23T02:34:57;98220.72;;;20.97;100.00
35479;BME280;21594;49.794;18.652;2022-07-23T02:42:34;98216.72;;;20.74;100.00
35479;BME280;21594;49.794;18.652;2022-07-23T02:45:09;98217.22;;;20.74;100.00
35479;BME280;21594;49.794;18.652;2022-07-23T02:47:38;98213.12;;;20.67;100.00
35479;BME280;21594;49.794;18.652;2022-07-23T02:50:10;98216.13;;;20.64;100.00
35479;BME280;21594;49.794;18.652;2022-07-23T02:52:40;98214.02;;;20.78;100.00
35479;BME280;21594;49.794;18.652;2022-07-23T02:55:09;98218.22;;;21.00;100.00
35479;BME280;21594;49.794;18.652;2022-07-23T02:57:41;98214.94;;;21.12;100.00
35479;BME280;21594;49.794;18.652;2022-07-23T03:00:06;98211.55;;;21.22;100.00
35479;BME280;21594;49.794;18.652;2022-07-23T03:02:33;98202.02;;;21.28;100.00
35479;BME280;21594;49.794;18.652;2022-07-23T03:04:59;98206.51;;;21.27;100.00
35479;BME280;21594;49.794;18.652;2022-07-23T03:07:29;98210.00;;;21.28;100.00
35479;BME280;21594;49.794;18.652;2022-07-23T03:09:56;98208.00;;;21.30;100.00
35479;BME280;21594;49.794;18.652;2022-07-23T03:12:27;98210.33;;;21.29;100.00
35479;BME280;21594;49.794;18.652;2022-07-23T03:14:54;98213.48;;;21.33;100.00
35479;BME280;21594;49.794;18.652;2022-07-23T03:17:20;98211.77;;;21.36;100.00
35479;BME280;21594;49.794;18.652;2022-07-23T03:19:49;98213.11;;;21.36;100.00
35479;BME280;21594;49.794;18.652;2022-07-23T03:22:15;98206.17;;;21.31;100.00
35479;BME280;21594;49.794;18.652;2022-07-23T03:24:44;98208.66;;;21.32;100.00
35479;BME280;21594;49.794;18.652;2022-07-23T03:27:24;98213.78;;;21.34;100.00
35479;BME280;21594;49.794;18.652;2022-07-23T03:30:00;98216.60;;;21.36;100.00
35479;BME280;21594;49.794;18.652;2022-07-23T03:32:28;98216.27;;;21.35;100.00
35479;BME280;21594;49.794;18.652;2022-07-23T03:34:55;98226.46;;;21.32;100.00
35479;BME280;21594;49.794;18.652;2022-07-23T03:37:24;98212.66;;;21.32;100.00
35479;BME280;21594;49.794;18.652;2022-07-23T03:39:51;98214.61;;;21.34;100.00
35479;BME280;21594;49.794;18.652;2022-07-23T03:42:23;98220.92;;;21.37;100.00
35479;BME280;21594;49.794;18.652;2022-07-23T03:44:55;98216.55;;;21.40;100.00
35479;BME280;21594;49.794;18.652;2022-07-23T03:47:21;98217.04;;;21.44;100.00
35479;BME280;21594;49.794;18.652;2022-07-23T03:49:50;98215.99;;;21.49;100.00
35479;BME280;21594;49.794;18.652;2022-07-23T03:52:19;98211.95;;;21.53;100.00
35479;BME280;21594;49.794;18.652;2022-07-23T03:54:45;98213.23;;;21.57;100.00
35479;BME280;21594;49.794;18.652;2022-07-23T03:57:11;98212.89;;;21.60;100.00
35479;BME280;21594;49.794;18.652;2022-07-23T03:59:37;98210.02;;;21.61;100.00
35479;BME280;21594;49.794;18.652;2022-07-23T04:02:15;98209.17;;;21.65;100.00
35479;BME280;21594;49.794;18.652;2022-07-23T04:04:41;98207.63;;;21.66;100.00
35479;BME280;21594;49.794;18.652;2022-07-23T04:07:08;98205.62;;;21.68;100.00
35479;BME280;21594;49.794;18.652;2022-07-23T04:09:35;98208.56;;;21.74;100.00
35479;BME280;21594;49.794;18.652;2022-07-23T04:12:01;98212.48;;;21.82;100.00
35479;BME280;21594;49.794;18.652;2022-07-23T04:14:27;98207.38;;;21.91;100.00
35479;BME280;21594;49.794;18.652;2022-07-23T04:16:59;98203.13;;;22.00;100.00
35479;BME280;21594;49.794;18.652;2022-07-23T04:19:32;98203.05;;;22.08;100.00
35479;BME280;21594;49.794;18.652;2022-07-23T04:21:58;98204.77;;;22.16;100.00
35479;BME280;21594;49.794;18.652;2022-07-23T04:24:24;98208.17;;;22.25;100.00
35479;BME280;21594;49.794;18.652;2022-07-23T04:26:50;98203.66;;;22.10;100.00
35479;BME280;21594;49.794;18.652;2022-07-23T04:29:17;98197.67;;;21.94;100.00
35479;BME280;21594;49.794;18.652;2022-07-23T04:31:54;98199.89;;;21.90;100.00
35479;BME280;21594;49.794;18.652;2022-07-23T04:34:20;98206.71;;;22.07;100.00
35479;BME280;21594;49.794;18.652;2022-07-23T04:36:47;98213.52;;;22.35;100.00
35479;BME280;21594;49.794;18.652;2022-07-23T04:39:14;98217.39;;;22.58;100.00
35479;BME280;21594;49.794;18.652;2022-07-23T04:41:43;98208.34;;;22.74;100.00
35479;BME280;21594;49.794;18.652;2022-07-23T04:44:12;98208.35;;;22.84;100.00
35479;BME280;21594;49.794;18.652;2022-07-23T04:46:38;98204.72;;;22.92;100.00
35479;BME280;21594;49.794;18.652;2022-07-23T04:49:05;98202.30;;;22.97;100.00
35479;BME280;21594;49.794;18.652;2022-07-23T04:51:32;98200.96;;;22.97;100.00
35479;BME280;21594;49.794;18.652;2022-07-23T04:54:01;98199.70;;;22.82;100.00
35479;BME280;21594;49.794;18.652;2022-07-23T04:56:27;98193.75;;;22.66;100.00
35479;BME280;21594;49.794;18.652;2022-07-23T04:58:53;98197.41;;;22.54;100.00
35479;BME280;21594;49.794;18.652;2022-07-23T05:03:47;98186.81;;;22.50;100.00
35479;BME280;21594;49.794;18.652;2022-07-23T05:06:32;98183.38;;;22.45;100.00
35479;BME280;21594;49.794;18.652;2022-07-23T05:09:01;98177.72;;;22.44;100.00
35479;BME280;21594;49.794;18.652;2022-07-23T05:11:27;98180.80;;;22.52;100.00
35479;BME280;21594;49.794;18.652;2022-07-23T05:14:02;98179.14;;;22.62;100.00
35479;BME280;21594;49.794;18.652;2022-07-23T05:16:28;98179.80;;;22.64;100.00
35479;BME280;21594;49.794;18.652;2022-07-23T05:18:54;98177.95;;;22.75;100.00
35479;BME280;21594;49.794;18.652;2022-07-23T05:21:20;98171.83;;;22.74;100.00
35479;BME280;21594;49.794;18.652;2022-07-23T05:23:51;98173.02;;;22.72;100.00
35479;BME280;21594;49.794;18.652;2022-07-23T05:26:17;98170.34;;;22.72;100.00
35479;BME280;21594;49.794;18.652;2022-07-23T05:28:43;98168.84;;;22.73;100.00
35479;BME280;21594;49.794;18.652;2022-07-23T05:31:31;98157.77;;;22.76;100.00
35479;BME280;21594;49.794;18.652;2022-07-23T05:33:58;98165.16;;;22.85;100.00
35479;BME280;21594;49.794;18.652;2022-07-23T05:36:26;98165.40;;;22.90;100.00
35479;BME280;21594;49.794;18.652;2022-07-23T05:38:58;98166.27;;;22.97;100.00
35479;BME280;21594;49.794;18.652;2022-07-23T05:41:25;98160.14;;;23.14;100.00
35479;BME280;21594;49.794;18.652;2022-07-23T05:43:57;98162.98;;;23.33;100.00
35479;BME280;21594;49.794;18.652;2022-07-23T05:46:26;98162.77;;;23.56;100.00
35479;BME280;21594;49.794;18.652;2022-07-23T05:48:53;98158.04;;;23.75;100.00
35479;BME280;21594;49.794;18.652;2022-07-23T05:51:21;98154.20;;;23.91;100.00
35479;BME280;21594;49.794;18.652;2022-07-23T05:53:50;98155.07;;;23.98;100.00
35479;BME280;21594;49.794;18.652;2022-07-23T05:56:17;98148.77;;;23.89;100.00
35479;BME280;21594;49.794;18.652;2022-07-23T05:58:50;98142.23;;;23.81;100.00
35479;BME280;21594;49.794;18.652;2022-07-23T06:01:17;98137.86;;;23.73;100.00
35479;BME280;21594;49.794;18.652;2022-07-23T06:03:43;98136.19;;;23.83;100.00
35479;BME280;21594;49.794;18.652;2022-07-23T06:06:09;98134.98;;;23.92;100.00
35479;BME280;21594;49.794;18.652;2022-07-23T06:08:35;98141.20;;;23.99;100.00
35479;BME280;21594;49.794;18.652;2022-07-23T06:11:10;98139.06;;;24.05;100.00
35479;BME280;21594;49.794;18.652;2022-07-23T06:13:43;98139.61;;;24.11;100.00
35479;BME280;21594;49.794;18.652;2022-07-23T06:16:11;98148.97;;;24.11;100.00
35479;BME280;21594;49.794;18.652;2022-07-23T06:18:43;98147.85;;;24.16;100.00
35479;BME280;21594;49.794;18.652;2022-07-23T06:21:09;98146.36;;;24.24;100.00
35479;BME280;21594;49.794;18.652;2022-07-23T06:23:36;98148.57;;;24.38;100.00
35479;BME280;21594;49.794;18.652;2022-07-23T06:28:48;98143.48;;;24.69;100.00
35479;BME280;21594;49.794;18.652;2022-07-23T06:31:13;98144.12;;;24.84;100.00
35479;BME280;21594;49.794;18.652;2022-07-23T06:33:39;98142.08;;;24.93;100.00
35479;BME280;21594;49.794;18.652;2022-07-23T06:36:08;98143.65;;;24.91;100.00
35479;BME280;21594;49.794;18.652;2022-07-23T06:38:35;98142.52;;;25.03;100.00
35479;BME280;21594;49.794;18.652;2022-07-23T06:41:01;98140.97;;;25.18;100.00
35479;BME280;21594;49.794;18.652;2022-07-23T06:43:27;98135.09;;;25.25;100.00
35479;BME280;21594;49.794;18.652;2022-07-23T06:45:53;98132.93;;;25.18;100.00
35479;BME280;21594;49.794;18.652;2022-07-23T06:48:22;98140.66;;;25.17;100.00
35479;BME280;21594;49.794;18.652;2022-07-23T06:50:51;98139.94;;;25.12;100.00
35479;BME280;21594;49.794;18.652;2022-07-23T06:53:23;98142.52;;;25.03;100.00
35479;BME280;21594;49.794;18.652;2022-07-23T06:55:55;98147.97;;;25.06;100.00
35479;BME280;21594;49.794;18.652;2022-07-23T06:58:24;98149.00;;;25.11;100.00
35479;BME280;21594;49.794;18.652;2022-07-23T07:03:25;98143.95;;;25.12;100.00
35479;BME280;21594;49.794;18.652;2022-07-23T07:05:51;98147.16;;;25.25;100.00
35479;BME280;21594;49.794;18.652;2022-07-23T07:10:46;98147.09;;;25.71;100.00
35479;BME280;21594;49.794;18.652;2022-07-23T07:13:12;98149.42;;;25.90;100.00
35479;BME280;21594;49.794;18.652;2022-07-23T07:15:38;98146.78;;;26.05;100.00
35479;BME280;21594;49.794;18.652;2022-07-23T07:18:04;98140.63;;;26.20;100.00
35479;BME280;21594;49.794;18.652;2022-07-23T07:20:33;98144.94;;;26.35;100.00
35479;BME280;21594;49.794;18.652;2022-07-23T07:23:00;98148.56;;;26.47;100.00
35479;BME280;21594;49.794;18.652;2022-07-23T07:25:26;98158.75;;;26.54;100.00
35479;BME280;21594;49.794;18.652;2022-07-23T07:27:53;98144.61;;;26.56;100.00
35479;BME280;21594;49.794;18.652;2022-07-23T07:30:19;98151.19;;;26.60;100.00
35479;BME280;21594;49.794;18.652;2022-07-23T07:32:50;98146.23;;;26.57;100.00
35479;BME280;21594;49.794;18.652;2022-07-23T07:35:16;98150.36;;;26.59;100.00
35479;BME280;21594;49.794;18.652;2022-07-23T07:37:45;98149.63;;;26.61;100.00
35479;BME280;21594;49.794;18.652;2022-07-23T07:40:11;98153.14;;;26.62;100.00
35479;BME280;21594;49.794;18.652;2022-07-23T07:42:44;98147.81;;;26.71;100.00
35479;BME280;21594;49.794;18.652;2022-07-23T07:45:10;98149.49;;;26.81;100.00
35479;BME280;21594;49.794;18.652;2022-07-23T07:47:36;98144.43;;;26.82;100.00
35479;BME280;21594;49.794;18.652;2022-07-23T07:50:02;98149.05;;;26.84;100.00
35479;BME280;21594;49.794;18.652;2022-07-23T07:52:35;98141.88;;;26.78;100.00
35479;BME280;21594;49.794;18.652;2022-07-23T07:57:33;98137.53;;;27.09;100.00
35479;BME280;21594;49.794;18.652;2022-07-23T08:00:01;98136.83;;;27.20;100.00
35479;BME280;21594;49.794;18.652;2022-07-23T08:02:27;98126.08;;;27.20;100.00
35479;BME280;21594;49.794;18.652;2022-07-23T08:04:53;98117.40;;;27.18;99.57
35479;BME280;21594;49.794;18.652;2022-07-23T08:07:18;98109.86;;;27.17;99.11
35479;BME280;21594;49.794;18.652;2022-07-23T08:12:26;98107.27;;;27.29;98.78
35479;BME280;21594;49.794;18.652;2022-07-23T08:14:54;98102.36;;;27.35;98.41
35479;BME280;21594;49.794;18.652;2022-07-23T08:20:01;98095.37;;;27.43;97.05
35479;BME280;21594;49.794;18.652;2022-07-23T08:25:14;98097.55;;;27.62;96.86
35479;BME280;21594;49.794;18.652;2022-07-23T08:27:42;98095.77;;;27.74;96.43
35479;BME280;21594;49.794;18.652;2022-07-23T08:30:09;98096.27;;;27.82;95.86
35479;BME280;21594;49.794;18.652;2022-07-23T08:32:57;98097.69;;;27.94;95.71
35479;BME280;21594;49.794;18.652;2022-07-23T08:35:03;98103.95;;;28.06;95.22
35479;BME280;21594;49.794;18.652;2022-07-23T08:37:28;98105.09;;;28.17;94.70
35479;BME280;21594;49.794;18.652;2022-07-23T08:39:54;98104.19;;;28.23;93.72
35479;BME280;21594;49.794;18.652;2022-07-23T08:42:22;98106.27;;;28.30;93.20
35479;BME280;21594;49.794;18.652;2022-07-23T08:44:55;98109.23;;;28.40;92.83
35479;BME280;21594;49.794;18.652;2022-07-23T08:47:23;98107.33;;;28.50;92.28
35479;BME280;21594;49.794;18.652;2022-07-23T08:49:52;98103.72;;;28.56;91.63
35479;BME280;21594;49.794;18.652;2022-07-23T08:52:20;98108.48;;;28.63;91.04
35479;BME280;21594;49.794;18.652;2022-07-23T08:54:46;98105.75;;;28.72;90.41
35479;BME280;21594;49.794;18.652;2022-07-23T08:57:14;98106.94;;;28.85;90.06
35479;BME280;21594;49.794;18.652;2022-07-23T08:59:41;98101.27;;;28.96;89.56
35479;BME280;21594;49.794;18.652;2022-07-23T09:02:07;98105.03;;;29.06;88.64
35479;BME280;21594;49.794;18.652;2022-07-23T09:04:35;98097.70;;;29.16;88.19
35479;BME280;21594;49.794;18.652;2022-07-23T09:07:02;98100.10;;;29.27;88.35
35479;BME280;21594;49.794;18.652;2022-07-23T09:09:28;98099.23;;;29.35;87.78
35479;BME280;21594;49.794;18.652;2022-07-23T09:12:06;98105.34;;;29.42;86.83
35479;BME280;21594;49.794;18.652;2022-07-23T09:14:43;98109.31;;;29.51;85.81
35479;BME280;21594;49.794;18.652;2022-07-23T09:17:13;98108.21;;;29.62;85.42
35479;BME280;21594;49.794;18.652;2022-07-23T09:19:41;98104.38;;;29.72;84.73
35479;BME280;21594;49.794;18.652;2022-07-23T09:22:25;98103.99;;;29.80;84.17
35479;BME280;21594;49.794;18.652;2022-07-23T09:25:13;98103.57;;;29.85;82.90
35479;BME280;21594;49.794;18.652;2022-07-23T09:27:57;98102.45;;;29.96;81.75
35479;BME280;21594;49.794;18.652;2022-07-23T09:30:31;98100.65;;;30.13;80.85
35479;BME280;21594;49.794;18.652;2022-07-23T09:35:55;98106.88;;;30.70;79.74
35479;BME280;21594;49.794;18.652;2022-07-23T09:38:29;98101.13;;;30.81;78.75
35479;BME280;21594;49.794;18.652;2022-07-23T09:41:09;98103.08;;;30.85;77.33
35479;BME280;21594;49.794;18.652;2022-07-23T09:43:42;98108.18;;;30.98;76.22
35479;BME280;21594;49.794;18.652;2022-07-23T09:46:27;98094.48;;;31.19;75.41
35479;BME280;21594;49.794;18.652;2022-07-23T09:48:51;98096.87;;;31.35;74.97
35479;BME280;21594;49.794;18.652;2022-07-23T09:51:21;98095.00;;;31.38;74.32
35479;BME280;21594;49.794;18.652;2022-07-23T09:53:52;98099.25;;;31.50;73.34
35479;BME280;21594;49.794;18.652;2022-07-23T09:56:20;98098.20;;;31.71;72.24
35479;BME280;21594;49.794;18.652;2022-07-23T09:58:49;98089.19;;;31.84;71.37
35479;BME280;21594;49.794;18.652;2022-07-23T10:01:18;98089.06;;;31.96;70.54
35479;BME280;21594;49.794;18.652;2022-07-23T10:03:48;98080.77;;;32.05;69.03
35479;BME280;21594;49.794;18.652;2022-07-23T10:06:18;98081.44;;;32.15;67.69
35479;BME280;21594;49.794;18.652;2022-07-23T10:08:46;98077.72;;;32.21;66.47
35479;BME280;21594;49.794;18.652;2022-07-23T10:11:20;98075.02;;;32.21;65.32
35479;BME280;21594;49.794;18.652;2022-07-23T10:13:46;98073.70;;;32.23;64.51
35479;BME280;21594;49.794;18.652;2022-07-23T10:16:21;98070.12;;;32.18;63.44
35479;BME280;21594;49.794;18.652;2022-07-23T10:18:48;98070.22;;;32.28;63.26
35479;BME280;21594;49.794;18.652;2022-07-23T10:21:36;98065.19;;;32.39;62.61
35479;BME280;21594;49.794;18.652;2022-07-23T10:30:04;98059.53;;;32.43;59.91
35479;BME280;21594;49.794;18.652;2022-07-23T10:38:03;98049.89;;;32.55;57.61
35479;BME280;21594;49.794;18.652;2022-07-23T10:40:34;98050.37;;;32.49;56.33
35479;BME280;21594;49.794;18.652;2022-07-23T10:43:05;98044.30;;;32.37;55.31
35479;BME280;21594;49.794;18.652;2022-07-23T10:45:34;98044.58;;;32.38;55.00
35479;BME280;21594;49.794;18.652;2022-07-23T10:48:21;98044.14;;;32.49;54.75
35479;BME280;21594;49.794;18.652;2022-07-23T10:51:08;98042.09;;;32.61;54.48
35479;BME280;21594;49.794;18.652;2022-07-23T10:53:54;98046.16;;;32.63;53.73
35479;BME280;21594;49.794;18.652;2022-07-23T10:59:22;98038.31;;;32.62;52.23
35479;BME280;21594;49.794;18.652;2022-07-23T11:04:49;98033.20;;;32.65;51.69
35479;BME280;21594;49.794;18.652;2022-07-23T11:07:19;98029.22;;;32.73;51.01
35479;BME280;21594;49.794;18.652;2022-07-23T11:09:46;98023.58;;;32.82;50.94
35479;BME280;21594;49.794;18.652;2022-07-23T11:15:08;98020.75;;;33.06;50.66
35479;BME280;21594;49.794;18.652;2022-07-23T11:17:38;98015.13;;;33.15;50.67
35479;BME280;21594;49.794;18.652;2022-07-23T11:20:15;98015.45;;;33.19;50.21
35479;BME280;21594;49.794;18.652;2022-07-23T11:22:48;98010.05;;;33.22;49.99
35479;BME280;21594;49.794;18.652;2022-07-23T11:25:30;98015.23;;;33.33;49.81
35479;BME280;21594;49.794;18.652;2022-07-23T11:28:15;98008.19;;;33.27;49.06
35479;BME280;21594;49.794;18.652;2022-07-23T11:30:45;98013.88;;;33.33;49.02
35479;BME280;21594;49.794;18.652;2022-07-23T11:35:44;98002.42;;;33.18;48.04
35479;BME280;21594;49.794;18.652;2022-07-23T11:38:14;98002.62;;;33.09;47.45
35479;BME280;21594;49.794;18.652;2022-07-23T11:40:43;98008.97;;;33.25;47.56
35479;BME280;21594;49.794;18.652;2022-07-23T11:43:10;97990.61;;;33.45;47.71
35479;BME280;21594;49.794;18.652;2022-07-23T11:45:39;97995.56;;;33.58;47.77
35479;BME280;21594;49.794;18.652;2022-07-23T11:48:08;97991.88;;;33.77;47.90
35479;BME280;21594;49.794;18.652;2022-07-23T11:50:37;97985.64;;;33.89;47.83
35479;BME280;21594;49.794;18.652;2022-07-23T11:53:03;97980.52;;;33.97;47.53
35479;BME280;21594;49.794;18.652;2022-07-23T11:55:29;97977.55;;;34.04;47.15
35479;BME280;21594;49.794;18.652;2022-07-23T11:57:56;97971.84;;;34.08;47.18
35479;BME280;21594;49.794;18.652;2022-07-23T12:00:27;97972.64;;;34.06;46.82
35479;BME280;21594;49.794;18.652;2022-07-23T12:02:57;97964.51;;;34.09;46.60
35479;BME280;21594;49.794;18.652;2022-07-23T12:05:32;97960.72;;;34.15;46.48
35479;BME280;21594;49.794;18.652;2022-07-23T12:08:00;97962.65;;;34.19;46.11
35479;BME280;21594;49.794;18.652;2022-07-23T12:10:39;97959.34;;;34.17;45.68
35479;BME280;21594;49.794;18.652;2022-07-23T12:13:13;97962.09;;;34.27;45.64
35479;BME280;21594;49.794;18.652;2022-07-23T12:15:44;97963.19;;;34.39;45.70
35479;BME280;21594;49.794;18.652;2022-07-23T12:18:12;97970.00;;;34.36;45.36
35479;BME280;21594;49.794;18.652;2022-07-23T12:20:42;97959.37;;;34.37;44.90
35479;BME280;21594;49.794;18.652;2022-07-23T12:23:13;97962.11;;;34.30;44.64
35479;BME280;21594;49.794;18.652;2022-07-23T12:25:51;97955.30;;;34.27;44.60
35479;BME280;21594;49.794;18.652;2022-07-23T12:28:20;97955.32;;;34.25;44.53
35479;BME280;21594;49.794;18.652;2022-07-23T12:30:49;97953.14;;;34.29;44.51
35479;BME280;21594;49.794;18.652;2022-07-23T12:35:57;97952.05;;;34.51;44.75
35479;BME280;21594;49.794;18.652;2022-07-23T12:38:27;97939.53;;;34.60;44.71
35479;BME280;21594;49.794;18.652;2022-07-23T12:40:59;97942.26;;;34.50;43.81
35479;BME280;21594;49.794;18.652;2022-07-23T12:43:31;97931.95;;;34.41;43.55
35479;BME280;21594;49.794;18.652;2022-07-23T12:46:02;97924.61;;;34.34;43.11
35479;BME280;21594;49.794;18.652;2022-07-23T12:48:27;97929.48;;;34.32;43.29
35479;BME280;21594;49.794;18.652;2022-07-23T12:51:06;97929.22;;;34.39;43.29
35479;BME280;21594;49.794;18.652;2022-07-23T12:53:38;97925.70;;;34.31;43.00
35479;BME280;21594;49.794;18.652;2022-07-23T12:56:08;97917.80;;;34.37;43.03
35479;BME280;21594;49.794;18.652;2022-07-23T12:58:52;97909.92;;;34.51;43.18
35479;BME280;21594;49.794;18.652;2022-07-23T13:01:26;97913.97;;;34.66;43.75
35479;BME280;21594;49.794;18.652;2022-07-23T13:04:09;97918.36;;;34.69;43.46
35479;BME280;21594;49.794;18.652;2022-07-23T13:06:42;97910.45;;;34.78;43.71
35479;BME280;21594;49.794;18.652;2022-07-23T13:09:12;97911.53;;;34.77;43.54
35479;BME280;21594;49.794;18.652;2022-07-23T13:11:41;97914.54;;;34.73;43.48
35479;BME280;21594;49.794;18.652;2022-07-23T13:14:14;97913.47;;;34.69;43.53
35479;BME280;21594;49.794;18.652;2022-07-23T13:16:46;97900.67;;;34.57;43.64
35479;BME280;21594;49.794;18.652;2022-07-23T13:19:12;97904.73;;;34.59;43.70
35479;BME280;21594;49.794;18.652;2022-07-23T13:21:40;97901.52;;;34.47;43.41
35479;BME280;21594;49.794;18.652;2022-07-23T13:24:10;97893.89;;;34.52;43.90
35479;BME280;21594;49.794;18.652;2022-07-23T13:26:46;97893.05;;;34.54;43.73
35479;BME280;21594;49.794;18.652;2022-07-23T13:29:15;97896.59;;;34.49;43.36
35479;BME280;21594;49.794;18.652;2022-07-23T13:31:41;97905.31;;;34.33;43.09
35479;BME280;21594;49.794;18.652;2022-07-23T13:34:09;97905.87;;;34.25;43.05
35479;BME280;21594;49.794;18.652;2022-07-23T13:36:36;97896.31;;;34.10;43.08
35479;BME280;21594;49.794;18.652;2022-07-23T13:39:09;97903.10;;;34.10;43.02
35479;BME280;21594;49.794;18.652;2022-07-23T13:41:37;97906.36;;;34.10;43.32
35479;BME280;21594;49.794;18.652;2022-07-23T13:44:03;97900.13;;;34.07;43.56
35479;BME280;21594;49.794;18.652;2022-07-23T13:46:31;97900.41;;;34.02;43.72
35479;BME280;21594;49.794;18.652;2022-07-23T13:48:57;97898.74;;;33.84;43.33
35479;BME280;21594;49.794;18.652;2022-07-23T13:51:23;97903.56;;;33.67;43.17
35479;BME280;21594;49.794;18.652;2022-07-23T13:53:50;97907.63;;;33.61;43.15
35479;BME280;21594;49.794;18.652;2022-07-23T13:56:16;97904.06;;;33.46;43.00